KPBF/PBF METAR and TAF weather

Enter ICAO airport designator
Station Type Date Time Source
KPBF METAR 2020/04/06 12:53 UTC NOAA

KPBF 061253Z AUTO 00000KT 9SM CLR 14/13 A3007 RMK AO2 SLP181 T01440133


Station Type Date Time Source
KPBF Decoded METAR 2020/04/06 12:53 UTC NOAA

PINE BLUFF GRIDER FIELD, AR, United States (KPBF) 34-11N 091-56W 62M
Apr 06, 2020 - 08:53 AM EDT / 2020.04.06 1253 UTC
Wind: Calm:0
Visibility: 9 mile(s):0
Sky conditions: clear
Temperature: 57.9 F (14.4 C)
Dew Point: 55.9 F (13.3 C)
Relative Humidity: 93%
Pressure (altimeter): 30.07 in. Hg (1018 hPa)
ob: KPBF 061253Z AUTO 00000KT 9SM CLR 14/13 A3007 RMK AO2 SLP181 T01440133
cycle: 13

Station Type Date Time Source
KPBF TAF 2020/04/06 12:30 UTC NOAA

TAF KPBF 061129Z 0612/0712 00000KT P6SM OVC110
TEMPO 0612/0614 5SM BR OVC025
FM061400 19008KT P6SM OVC090
FM070000 20004KT P6SM OVC150

Example: see airport list